Time,TemperatureF,DewpointF,PressureIn,WindDirection,WindDirectionDegrees,WindSpeedMPH,WindSpeedGustMPH,Humidity,HourlyPrecipIn,Conditions,Clouds,dailyrainin,SoftwareType,DateUTC
2013-04-16 00:00:00,52.4,47.1,27.43,SSW,198,5.0,20.0,82,0.00,,,-99.99,Weather View 32 v60,2013-04-16 04:00:00,
2013-04-16 00:20:00,52.5,47.2,27.43,South,171,11.0,21.0,82,0.00,,,-99.99,Weather View 32 v60,2013-04-16 04:20:00,
2013-04-16 00:26:00,52.5,47.2,27.43,South,171,11.0,21.0,82,0.00,,,-99.99,Weather View 32 v60,2013-04-16 04:26:00,
2013-04-16 00:40:00,52.6,47.2,27.43,SSW,197,9.0,24.0,82,0.00,,,-99.99,Weather View 32 v60,2013-04-16 04:40:00,
2013-04-16 01:00:00,52.6,47.2,27.42,SSW,203,13.0,24.0,82,0.00,,,-99.99,Weather View 32 v60,2013-04-16 05:00:00,
2013-04-16 01:20:00,52.2,46.9,27.42,SW,226,11.0,24.0,82,0.00,,,-99.99,Weather View 32 v60,2013-04-16 05:20:00,
2013-04-16 01:27:00,52.2,46.9,27.42,SW,226,11.0,24.0,82,0.00,,,-99.99,Weather View 32 v60,2013-04-16 05:27:00,
2013-04-16 01:40:00,52.0,47.0,27.41,SSW,193,9.0,22.0,83,0.00,,,-99.99,Weather View 32 v60,2013-04-16 05:40:00,
2013-04-16 02:00:00,51.9,46.9,27.41,SSW,200,6.0,22.0,83,0.00,,,-99.99,Weather View 32 v60,2013-04-16 06:00:00,
2013-04-16 02:20:00,51.8,47.1,27.41,SSW,199,6.0,25.0,84,0.00,,,-99.99,Weather View 32 v60,2013-04-16 06:20:00,
2013-04-16 02:27:00,51.8,47.1,27.41,SSW,199,6.0,25.0,84,0.00,,,-99.99,Weather View 32 v60,2013-04-16 06:27:00,
2013-04-16 02:40:00,51.7,47.0,27.41,SSW,209,11.0,25.0,84,0.00,,,-99.99,Weather View 32 v60,2013-04-16 06:40:00,
2013-04-16 03:00:00,52.0,47.0,27.40,SSW,198,8.0,25.0,83,0.00,,,-99.99,Weather View 32 v60,2013-04-16 07:00:00,
2013-04-16 03:20:00,51.9,46.9,27.40,SSW,198,5.0,24.0,83,0.00,,,-99.99,Weather View 32 v60,2013-04-16 07:20:00,
2013-04-16 03:28:00,51.9,46.9,27.40,SSW,198,5.0,24.0,83,0.00,,,-99.99,Weather View 32 v60,2013-04-16 07:28:00,
2013-04-16 03:40:00,51.8,46.8,27.41,SSW,200,8.0,24.0,83,0.00,,,-99.99,Weather View 32 v60,2013-04-16 07:40:00,
2013-04-16 04:00:00,52.0,47.3,27.40,South,187,10.0,22.0,84,0.00,,,-99.99,Weather View 32 v60,2013-04-16 08:00:00,
2013-04-16 04:20:00,51.9,47.2,27.40,South,176,13.0,21.0,84,0.00,,,-99.99,Weather View 32 v60,2013-04-16 08:20:00,
2013-04-16 04:29:00,51.9,47.2,27.40,South,176,13.0,21.0,84,0.00,,,-99.99,Weather View 32 v60,2013-04-16 08:29:00,
2013-04-16 04:40:00,52.0,47.3,27.40,SSW,200,11.0,21.0,84,0.00,,,-99.99,Weather View 32 v60,2013-04-16 08:40:00,
2013-04-16 05:00:00,51.8,47.1,27.41,SSW,198,2.0,21.0,84,0.00,,,-99.99,Weather View 32 v60,2013-04-16 09:00:00,
2013-04-16 05:20:00,51.9,47.5,27.41,WSW,242,8.0,21.0,85,0.00,,,-99.99,Weather View 32 v60,2013-04-16 09:20:00,
2013-04-16 05:29:00,51.9,47.5,27.41,WSW,242,8.0,21.0,85,0.00,,,-99.99,Weather View 32 v60,2013-04-16 09:29:00,
2013-04-16 05:40:00,51.9,47.5,27.41,SSE,168,7.0,21.0,85,0.00,,,-99.99,Weather View 32 v60,2013-04-16 09:40:00,
2013-04-16 06:00:00,51.9,47.5,27.42,South,180,5.0,19.0,85,0.00,,,-99.99,Weather View 32 v60,2013-04-16 10:00:00,
2013-04-16 06:20:00,52.2,47.5,27.43,South,173,0.0,17.0,84,0.00,,,-99.99,Weather View 32 v60,2013-04-16 10:20:00,
2013-04-16 07:00:00,52.5,47.8,27.45,SW,215,2.0,13.0,84,0.00,,,-99.99,Weather View 32 v60,2013-04-16 11:00:00,
2013-04-16 07:20:00,53.0,48.3,27.45,SE,128,0.0,12.0,84,0.00,,,-99.99,Weather View 32 v60,2013-04-16 11:20:00,
2013-04-16 07:40:00,53.5,48.1,27.45,SSE,148,0.0,11.0,82,0.00,,,-99.99,Weather View 32 v60,2013-04-16 11:40:00,
2013-04-16 08:00:00,54.5,48.4,27.46,SW,231,3.0,6.0,80,0.00,,,-99.99,Weather View 32 v60,2013-04-16 12:00:00,
2013-04-16 08:20:00,56.9,48.7,27.46,SW,227,5.0,9.0,74,0.00,,,-99.99,Weather View 32 v60,2013-04-16 12:20:00,
2013-04-16 08:40:00,58.8,49.0,27.46,SSW,211,9.0,19.0,70,0.00,,,-99.99,Weather View 32 v60,2013-04-16 12:40:00,
2013-04-16 09:00:00,60.0,50.2,27.46,SW,225,8.0,19.0,70,0.00,,,-99.99,Weather View 32 v60,2013-04-16 13:00:00,
2013-04-16 09:20:00,62.5,50.5,27.46,WSW,250,10.0,19.0,65,0.00,,,-99.99,Weather View 32 v60,2013-04-16 13:20:00,
2013-04-16 09:40:00,63.3,50.0,27.46,SSW,209,8.0,19.0,62,0.00,,,-99.99,Weather View 32 v60,2013-04-16 13:40:00,
2013-04-16 10:00:00,65.6,51.8,27.46,WSW,245,7.0,15.0,61,0.00,,,-99.99,Weather View 32 v60,2013-04-16 14:00:00,
2013-04-16 10:20:00,68.4,51.6,27.47,WSW,238,6.0,15.0,55,0.00,,,-99.99,Weather View 32 v60,2013-04-16 14:20:00,
2013-04-16 10:40:00,68.5,52.1,27.47,SW,220,6.0,19.0,56,0.00,,,-99.99,Weather View 32 v60,2013-04-16 14:40:00,
2013-04-16 11:00:00,71.3,53.2,27.47,WSW,256,10.0,19.0,53,0.00,,,-99.99,Weather View 32 v60,2013-04-16 15:00:00,
2013-04-16 11:20:00,71.6,51.9,27.47,SW,230,8.0,19.0,50,0.00,,,-99.99,Weather View 32 v60,2013-04-16 15:20:00,
2013-04-16 11:40:00,69.1,50.7,27.47,West,274,11.0,21.0,52,0.00,,,-99.99,Weather View 32 v60,2013-04-16 15:40:00,
2013-04-16 12:20:00,71.3,51.1,27.47,NW,316,12.0,24.0,49,0.00,,,-99.99,Weather View 32 v60,2013-04-16 16:20:00,
2013-04-16 12:40:00,71.6,52.5,27.47,WNW,289,4.0,24.0,51,0.00,,,-99.99,Weather View 32 v60,2013-04-16 16:40:00,
2013-04-16 13:00:00,73.7,51.6,27.47,WNW,291,5.0,24.0,46,0.00,,,-99.99,Weather View 32 v60,2013-04-16 17:00:00,
2013-04-16 13:20:00,74.9,52.1,27.46,WNW,290,9.0,19.0,45,0.00,,,-99.99,Weather View 32 v60,2013-04-16 17:20:00,
2013-04-16 13:40:00,73.8,51.7,27.46,NW,323,3.0,19.0,46,0.00,,,-99.99,Weather View 32 v60,2013-04-16 17:40:00,
2013-04-16 14:00:00,74.4,51.6,27.45,WSW,242,9.0,15.0,45,0.00,,,-99.99,Weather View 32 v60,2013-04-16 18:00:00,
2013-04-16 14:20:00,75.5,52.6,27.44,WSW,245,11.0,17.0,45,0.00,,,-99.99,Weather View 32 v60,2013-04-16 18:20:00,
2013-04-16 14:40:00,75.7,52.8,27.43,WSW,258,8.0,18.0,45,0.00,,,-99.99,Weather View 32 v60,2013-04-16 18:40:00,
2013-04-16 15:00:00,77.7,51.4,27.43,NW,307,3.0,18.0,40,0.00,,,-99.99,Weather View 32 v60,2013-04-16 19:00:00,
2013-04-16 15:20:00,77.3,51.0,27.42,WNW,284,8.0,18.0,40,0.00,,,-99.99,Weather View 32 v60,2013-04-16 19:20:00,
2013-04-16 15:40:00,76.6,51.1,27.42,NW,320,8.0,17.0,41,0.00,,,-99.99,Weather View 32 v60,2013-04-16 19:40:00,
2013-04-16 16:00:00,76.8,51.2,27.42,NW,308,4.0,17.0,41,0.00,,,-99.99,Weather View 32 v60,2013-04-16 20:00:00,
2013-04-16 16:20:00,77.0,53.3,27.40,WNW,294,6.0,17.0,44,0.00,,,-99.99,Weather View 32 v60,2013-04-16 20:20:00,
2013-04-16 16:40:00,75.5,53.2,27.39,WSW,239,11.0,17.0,46,0.00,,,-99.99,Weather View 32 v60,2013-04-16 20:40:00,
2013-04-16 17:00:00,75.8,52.3,27.38,WSW,241,6.0,17.0,44,0.00,,,-99.99,Weather View 32 v60,2013-04-16 21:00:00,
2013-04-16 17:20:00,76.9,52.6,27.39,WSW,258,10.0,17.0,43,0.00,,,-99.99,Weather View 32 v60,2013-04-16 21:20:00,
2013-04-16 17:40:00,76.6,49.7,27.38,West,276,7.0,17.0,39,0.00,,,-99.99,Weather View 32 v60,2013-04-16 21:40:00,
2013-04-16 18:00:00,78.4,49.2,27.38,West,270,5.0,16.0,36,0.00,,,-99.99,Weather View 32 v60,2013-04-16 22:00:00,
2013-04-16 18:20:00,78.2,49.0,27.38,WSW,243,10.0,16.0,36,0.00,,,-99.99,Weather View 32 v60,2013-04-16 22:20:00,
2013-04-16 18:40:00,78.3,49.1,27.38,WSW,242,5.0,15.0,36,0.00,,,-99.99,Weather View 32 v60,2013-04-16 22:40:00,
2013-04-16 19:00:00,74.5,49.8,27.38,WNW,293,2.0,15.0,42,0.00,,,-99.99,Weather View 32 v60,2013-04-16 23:00:00,
2013-04-16 19:20:00,72.5,50.5,27.38,WNW,289,7.0,15.0,46,0.00,,,-99.99,Weather View 32 v60,2013-04-16 23:20:00,
2013-04-16 19:40:00,71.4,50.6,27.39,WNW,292,3.0,12.0,48,0.00,,,-99.99,Weather View 32 v60,2013-04-16 23:40:00,
2013-04-16 20:00:00,70.6,50.5,27.39,WNW,296,1.0,11.0,49,0.00,,,-99.99,Weather View 32 v60,2013-04-17 00:00:00,
2013-04-16 20:20:00,70.1,50.5,27.39,WNW,300,0.0,9.0,50,0.00,,,-99.99,Weather View 32 v60,2013-04-17 00:20:00,
2013-04-16 20:40:00,69.6,50.6,27.39,WNW,297,3.0,8.0,51,0.00,,,-99.99,Weather View 32 v60,2013-04-17 00:40:00,
2013-04-16 21:00:00,69.1,50.7,27.40,West,272,0.0,8.0,52,0.00,,,-99.99,Weather View 32 v60,2013-04-17 01:00:00,
2013-04-16 21:20:00,67.9,51.1,27.41,West,279,0.0,5.0,55,0.00,,,-99.99,Weather View 32 v60,2013-04-17 01:20:00,
2013-04-16 21:40:00,67.7,50.9,27.42,WNW,282,0.0,5.0,55,0.00,,,-99.99,Weather View 32 v60,2013-04-17 01:40:00,
2013-04-16 22:00:00,65.5,56.2,27.46,NNE,13,12.0,23.0,72,0.00,,,-99.99,Weather View 32 v60,2013-04-17 02:00:00,
2013-04-16 22:20:00,57.1,55.4,27.49,North,1,14.0,36.0,94,0.20,,,-99.99,Weather View 32 v60,2013-04-17 02:20:00,
2013-04-16 22:40:00,56.7,55.3,27.50,North,359,9.0,36.0,95,0.28,,,-99.99,Weather View 32 v60,2013-04-17 02:40:00,
2013-04-16 23:00:00,56.4,55.3,27.50,NNW,327,6.0,36.0,96,0.37,,,-99.99,Weather View 32 v60,2013-04-17 03:00:00,
2013-04-16 23:20:00,56.3,55.2,27.50,North,3,3.0,19.0,96,0.25,,,-99.99,Weather View 32 v60,2013-04-17 03:20:00,
2013-04-16 23:40:00,56.1,55.0,27.48,WSW,244,0.0,15.0,96,0.24,,,-99.99,Weather View 32 v60,2013-04-17 03:40:00,